sensor_id;sensor_type;location;lat;lon;timestamp;temperature;humidity
24664;DHT22;12791;50.992;13.788;2023-02-28T00:00:06;2.00;99.90
24664;DHT22;12791;50.992;13.788;2023-02-28T00:02:37;1.90;99.90
24664;DHT22;12791;50.992;13.788;2023-02-28T00:05:04;1.60;99.90
24664;DHT22;12791;50.992;13.788;2023-02-28T00:07:32;1.90;99.90
24664;DHT22;12791;50.992;13.788;2023-02-28T00:09:58;1.80;99.90
24664;DHT22;12791;50.992;13.788;2023-02-28T00:12:26;1.70;99.90
24664;DHT22;12791;50.992;13.788;2023-02-28T00:14:53;1.80;99.90
24664;DHT22;12791;50.992;13.788;2023-02-28T00:17:20;1.70;99.90
24664;DHT22;12791;50.992;13.788;2023-02-28T00:19:48;1.70;99.90
24664;DHT22;12791;50.992;13.788;2023-02-28T00:22:15;1.80;99.90
24664;DHT22;12791;50.992;13.788;2023-02-28T00:24:42;1.90;99.90
24664;DHT22;12791;50.992;13.788;2023-02-28T00:27:09;1.70;99.90
24664;DHT22;12791;50.992;13.788;2023-02-28T00:29:36;1.80;99.90
24664;DHT22;12791;50.992;13.788;2023-02-28T00:32:03;1.80;99.90
24664;DHT22;12791;50.992;13.788;2023-02-28T00:34:29;1.70;99.90
24664;DHT22;12791;50.992;13.788;2023-02-28T00:36:57;1.80;99.90
24664;DHT22;12791;50.992;13.788;2023-02-28T00:39:24;1.80;99.90
24664;DHT22;12791;50.992;13.788;2023-02-28T00:41:50;1.70;99.90
24664;DHT22;12791;50.992;13.788;2023-02-28T00:44:17;1.90;99.90
24664;DHT22;12791;50.992;13.788;2023-02-28T00:46:46;1.80;99.90
24664;DHT22;12791;50.992;13.788;2023-02-28T00:49:13;1.80;99.90
24664;DHT22;12791;50.992;13.788;2023-02-28T00:51:39;1.70;99.90
24664;DHT22;12791;50.992;13.788;2023-02-28T00:54:07;1.70;99.90
24664;DHT22;12791;50.992;13.788;2023-02-28T00:56:34;1.80;99.90
24664;DHT22;12791;50.992;13.788;2023-02-28T00:59:01;1.80;99.90
24664;DHT22;12791;50.992;13.788;2023-02-28T01:01:27;1.70;99.90
24664;DHT22;12791;50.992;13.788;2023-02-28T01:03:54;1.80;99.90
24664;DHT22;12791;50.992;13.788;2023-02-28T01:06:20;1.90;99.90
24664;DHT22;12791;50.992;13.788;2023-02-28T01:08:47;1.70;99.90
24664;DHT22;12791;50.992;13.788;2023-02-28T01:11:16;1.70;99.90
24664;DHT22;12791;50.992;13.788;2023-02-28T01:13:45;2.00;99.90
24664;DHT22;12791;50.992;13.788;2023-02-28T01:16:12;1.80;99.90
24664;DHT22;12791;50.992;13.788;2023-02-28T01:18:39;1.90;99.90
24664;DHT22;12791;50.992;13.788;2023-02-28T01:21:07;1.70;99.90
24664;DHT22;12791;50.992;13.788;2023-02-28T01:23:34;2.00;99.90
24664;DHT22;12791;50.992;13.788;2023-02-28T01:26:04;1.90;99.90
24664;DHT22;12791;50.992;13.788;2023-02-28T01:28:32;1.90;99.90
24664;DHT22;12791;50.992;13.788;2023-02-28T01:30:59;1.70;99.90
24664;DHT22;12791;50.992;13.788;2023-02-28T01:33:26;1.90;99.90
24664;DHT22;12791;50.992;13.788;2023-02-28T01:35:58;2.00;99.90
24664;DHT22;12791;50.992;13.788;2023-02-28T01:38:24;2.00;99.90
24664;DHT22;12791;50.992;13.788;2023-02-28T01:40:51;2.00;99.90
24664;DHT22;12791;50.992;13.788;2023-02-28T01:43:22;1.70;99.90
24664;DHT22;12791;50.992;13.788;2023-02-28T01:45:51;1.70;99.90
24664;DHT22;12791;50.992;13.788;2023-02-28T01:48:19;1.80;99.90
24664;DHT22;12791;50.992;13.788;2023-02-28T01:50:47;1.80;99.90
24664;DHT22;12791;50.992;13.788;2023-02-28T01:53:18;1.70;99.90
24664;DHT22;12791;50.992;13.788;2023-02-28T01:55:47;1.60;99.90
24664;DHT22;12791;50.992;13.788;2023-02-28T01:58:15;1.70;99.90
24664;DHT22;12791;50.992;13.788;2023-02-28T02:00:42;1.80;99.90
24664;DHT22;12791;50.992;13.788;2023-02-28T02:03:12;1.90;99.90
24664;DHT22;12791;50.992;13.788;2023-02-28T02:05:40;1.80;99.90
24664;DHT22;12791;50.992;13.788;2023-02-28T02:08:10;1.80;99.90
24664;DHT22;12791;50.992;13.788;2023-02-28T02:10:41;1.50;99.90
24664;DHT22;12791;50.992;13.788;2023-02-28T02:13:17;1.80;99.90
24664;DHT22;12791;50.992;13.788;2023-02-28T02:15:53;1.70;99.90
24664;DHT22;12791;50.992;13.788;2023-02-28T02:18:29;1.80;99.90
24664;DHT22;12791;50.992;13.788;2023-02-28T02:21:27;1.70;99.90
24664;DHT22;12791;50.992;13.788;2023-02-28T02:24:09;1.80;99.90
24664;DHT22;12791;50.992;13.788;2023-02-28T02:26:59;1.70;99.90
24664;DHT22;12791;50.992;13.788;2023-02-28T02:32:43;1.40;99.90
24664;DHT22;12791;50.992;13.788;2023-02-28T02:35:17;1.60;99.90
24664;DHT22;12791;50.992;13.788;2023-02-28T02:37:51;1.60;99.90
24664;DHT22;12791;50.992;13.788;2023-02-28T02:40:22;1.40;99.90
24664;DHT22;12791;50.992;13.788;2023-02-28T02:42:52;1.30;99.90
24664;DHT22;12791;50.992;13.788;2023-02-28T02:45:25;1.40;99.90
24664;DHT22;12791;50.992;13.788;2023-02-28T02:47:53;1.50;99.90
24664;DHT22;12791;50.992;13.788;2023-02-28T02:50:27;1.60;99.90
24664;DHT22;12791;50.992;13.788;2023-02-28T02:52:57;1.50;99.90
24664;DHT22;12791;50.992;13.788;2023-02-28T02:55:25;1.30;99.90
24664;DHT22;12791;50.992;13.788;2023-02-28T02:57:54;1.50;99.90
24664;DHT22;12791;50.992;13.788;2023-02-28T03:00:25;1.40;99.90
24664;DHT22;12791;50.992;13.788;2023-02-28T03:02:54;1.50;99.90
24664;DHT22;12791;50.992;13.788;2023-02-28T03:05:26;1.50;99.90
24664;DHT22;12791;50.992;13.788;2023-02-28T03:07:53;1.40;99.90
24664;DHT22;12791;50.992;13.788;2023-02-28T03:10:36;1.30;99.90
24664;DHT22;12791;50.992;13.788;2023-02-28T03:13:31;1.30;99.90
24664;DHT22;12791;50.992;13.788;2023-02-28T03:16:12;1.50;99.90
24664;DHT22;12791;50.992;13.788;2023-02-28T03:18:43;1.40;99.90
24664;DHT22;12791;50.992;13.788;2023-02-28T03:21:23;1.30;99.90
24664;DHT22;12791;50.992;13.788;2023-02-28T03:23:58;1.40;99.90
24664;DHT22;12791;50.992;13.788;2023-02-28T03:26:30;1.40;99.90
24664;DHT22;12791;50.992;13.788;2023-02-28T03:29:02;1.30;99.90
24664;DHT22;12791;50.992;13.788;2023-02-28T03:31:33;1.30;99.90
24664;DHT22;12791;50.992;13.788;2023-02-28T03:34:04;1.20;99.90
24664;DHT22;12791;50.992;13.788;2023-02-28T03:36:36;1.60;99.90
24664;DHT22;12791;50.992;13.788;2023-02-28T03:39:10;1.40;99.90
24664;DHT22;12791;50.992;13.788;2023-02-28T03:41:42;1.50;99.90
24664;DHT22;12791;50.992;13.788;2023-02-28T03:44:16;1.40;99.90
24664;DHT22;12791;50.992;13.788;2023-02-28T03:46:48;1.10;99.90
24664;DHT22;12791;50.992;13.788;2023-02-28T03:49:18;1.20;99.90
24664;DHT22;12791;50.992;13.788;2023-02-28T03:51:49;1.40;99.90
24664;DHT22;12791;50.992;13.788;2023-02-28T03:54:19;1.20;99.90
24664;DHT22;12791;50.992;13.788;2023-02-28T03:56:51;1.10;99.90
24664;DHT22;12791;50.992;13.788;2023-02-28T03:59:24;1.10;99.90
24664;DHT22;12791;50.992;13.788;2023-02-28T04:01:52;1.10;99.90
24664;DHT22;12791;50.992;13.788;2023-02-28T04:04:20;1.30;99.90
24664;DHT22;12791;50.992;13.788;2023-02-28T04:06:51;1.20;99.90
24664;DHT22;12791;50.992;13.788;2023-02-28T04:09:19;0.90;99.90
24664;DHT22;12791;50.992;13.788;2023-02-28T04:11:48;1.00;99.90
24664;DHT22;12791;50.992;13.788;2023-02-28T04:14:17;0.90;99.90
24664;DHT22;12791;50.992;13.788;2023-02-28T04:16:44;0.80;99.90
24664;DHT22;12791;50.992;13.788;2023-02-28T04:19:12;0.90;99.90
24664;DHT22;12791;50.992;13.788;2023-02-28T04:21:41;1.10;99.90
24664;DHT22;12791;50.992;13.788;2023-02-28T04:24:11;0.70;99.90
24664;DHT22;12791;50.992;13.788;2023-02-28T04:26:40;0.70;99.90
24664;DHT22;12791;50.992;13.788;2023-02-28T04:29:09;0.60;99.90
24664;DHT22;12791;50.992;13.788;2023-02-28T04:31:36;0.90;99.90
24664;DHT22;12791;50.992;13.788;2023-02-28T04:34:03;0.70;99.90
24664;DHT22;12791;50.992;13.788;2023-02-28T04:36:30;0.60;99.90
24664;DHT22;12791;50.992;13.788;2023-02-28T04:38:56;0.60;99.90
24664;DHT22;12791;50.992;13.788;2023-02-28T04:41:24;0.90;99.90
24664;DHT22;12791;50.992;13.788;2023-02-28T04:43:51;0.00;99.90
24664;DHT22;12791;50.992;13.788;2023-02-28T04:46:18;0.50;99.90
24664;DHT22;12791;50.992;13.788;2023-02-28T04:48:45;0.50;99.90
24664;DHT22;12791;50.992;13.788;2023-02-28T04:51:13;0.60;99.90
24664;DHT22;12791;50.992;13.788;2023-02-28T04:53:41;0.60;99.90
24664;DHT22;12791;50.992;13.788;2023-02-28T04:56:11;0.50;99.90
24664;DHT22;12791;50.992;13.788;2023-02-28T04:58:40;0.60;99.90
24664;DHT22;12791;50.992;13.788;2023-02-28T05:01:15;0.50;99.90
24664;DHT22;12791;50.992;13.788;2023-02-28T05:03:42;0.40;99.90
24664;DHT22;12791;50.992;13.788;2023-02-28T05:06:10;0.10;99.90
24664;DHT22;12791;50.992;13.788;2023-02-28T05:08:37;0.00;99.90
24664;DHT22;12791;50.992;13.788;2023-02-28T05:11:05;0.00;99.90
24664;DHT22;12791;50.992;13.788;2023-02-28T05:13:33;0.20;99.90
24664;DHT22;12791;50.992;13.788;2023-02-28T05:16:02;0.20;99.90
24664;DHT22;12791;50.992;13.788;2023-02-28T05:18:29;-0.20;99.90
24664;DHT22;12791;50.992;13.788;2023-02-28T05:20:55;0.00;99.90
24664;DHT22;12791;50.992;13.788;2023-02-28T05:23:22;0.00;99.90
24664;DHT22;12791;50.992;13.788;2023-02-28T05:25:49;0.00;99.90
24664;DHT22;12791;50.992;13.788;2023-02-28T05:28:17;0.00;99.90
24664;DHT22;12791;50.992;13.788;2023-02-28T05:30:44;-0.10;99.90
24664;DHT22;12791;50.992;13.788;2023-02-28T05:33:12;-0.30;99.90
24664;DHT22;12791;50.992;13.788;2023-02-28T05:35:40;-0.30;99.90
24664;DHT22;12791;50.992;13.788;2023-02-28T05:38:07;-0.10;99.90
24664;DHT22;12791;50.992;13.788;2023-02-28T05:40:34;-0.20;99.90
24664;DHT22;12791;50.992;13.788;2023-02-28T05:43:00;-0.30;99.90
24664;DHT22;12791;50.992;13.788;2023-02-28T05:45:27;-0.30;99.90
24664;DHT22;12791;50.992;13.788;2023-02-28T05:47:54;-0.30;99.90
24664;DHT22;12791;50.992;13.788;2023-02-28T05:50:22;-0.60;99.90
24664;DHT22;12791;50.992;13.788;2023-02-28T05:52:49;-0.60;99.90
24664;DHT22;12791;50.992;13.788;2023-02-28T05:55:16;-0.50;99.90
24664;DHT22;12791;50.992;13.788;2023-02-28T05:57:43;-0.60;99.90
24664;DHT22;12791;50.992;13.788;2023-02-28T06:00:11;-0.70;99.90
24664;DHT22;12791;50.992;13.788;2023-02-28T06:02:40;-0.70;99.90
24664;DHT22;12791;50.992;13.788;2023-02-28T06:05:11;-0.70;99.90
24664;DHT22;12791;50.992;13.788;2023-02-28T06:07:40;-0.70;99.90
24664;DHT22;12791;50.992;13.788;2023-02-28T06:10:08;-0.70;99.90
24664;DHT22;12791;50.992;13.788;2023-02-28T06:12:35;-0.70;99.90
24664;DHT22;12791;50.992;13.788;2023-02-28T06:15:01;-0.70;99.90
24664;DHT22;12791;50.992;13.788;2023-02-28T06:17:28;-0.60;99.90
24664;DHT22;12791;50.992;13.788;2023-02-28T06:19:55;-0.80;99.90
24664;DHT22;12791;50.992;13.788;2023-02-28T06:22:21;-0.70;99.90
24664;DHT22;12791;50.992;13.788;2023-02-28T06:24:49;-0.80;99.90
24664;DHT22;12791;50.992;13.788;2023-02-28T06:27:18;-0.80;99.90
24664;DHT22;12791;50.992;13.788;2023-02-28T06:29:45;-0.70;99.90
24664;DHT22;12791;50.992;13.788;2023-02-28T06:32:12;-0.50;99.90
24664;DHT22;12791;50.992;13.788;2023-02-28T06:34:39;-0.70;99.90
24664;DHT22;12791;50.992;13.788;2023-02-28T06:37:05;-0.70;99.90
24664;DHT22;12791;50.992;13.788;2023-02-28T06:39:32;-0.40;99.90
24664;DHT22;12791;50.992;13.788;2023-02-28T06:42:00;-0.40;99.90
24664;DHT22;12791;50.992;13.788;2023-02-28T06:44:27;-0.50;99.90
24664;DHT22;12791;50.992;13.788;2023-02-28T06:47:01;-0.40;99.90
24664;DHT22;12791;50.992;13.788;2023-02-28T06:49:28;-0.40;99.90
24664;DHT22;12791;50.992;13.788;2023-02-28T06:51:55;-0.30;99.90
24664;DHT22;12791;50.992;13.788;2023-02-28T06:54:22;-0.20;99.90
24664;DHT22;12791;50.992;13.788;2023-02-28T06:56:48;-0.10;99.90
24664;DHT22;12791;50.992;13.788;2023-02-28T06:59:16;-0.10;99.90
24664;DHT22;12791;50.992;13.788;2023-02-28T07:01:43;0.00;99.90
24664;DHT22;12791;50.992;13.788;2023-02-28T07:04:10;-0.20;99.90
24664;DHT22;12791;50.992;13.788;2023-02-28T07:06:38;-0.10;99.90
24664;DHT22;12791;50.992;13.788;2023-02-28T07:09:05;-0.10;99.90
24664;DHT22;12791;50.992;13.788;2023-02-28T07:11:32;0.10;99.90
24664;DHT22;12791;50.992;13.788;2023-02-28T07:13:58;0.10;99.90
24664;DHT22;12791;50.992;13.788;2023-02-28T07:16:26;-0.10;99.90
24664;DHT22;12791;50.992;13.788;2023-02-28T07:18:53;0.30;99.90
24664;DHT22;12791;50.992;13.788;2023-02-28T07:21:20;0.10;99.90
24664;DHT22;12791;50.992;13.788;2023-02-28T07:23:47;0.40;99.90
24664;DHT22;12791;50.992;13.788;2023-02-28T07:26:15;0.40;99.90
24664;DHT22;12791;50.992;13.788;2023-02-28T07:28:42;0.70;99.90
24664;DHT22;12791;50.992;13.788;2023-02-28T07:31:10;0.60;99.90
24664;DHT22;12791;50.992;13.788;2023-02-28T07:33:38;0.50;99.90
24664;DHT22;12791;50.992;13.788;2023-02-28T07:36:07;0.80;99.90
24664;DHT22;12791;50.992;13.788;2023-02-28T07:38:34;0.60;99.90
24664;DHT22;12791;50.992;13.788;2023-02-28T07:41:01;0.70;99.90
24664;DHT22;12791;50.992;13.788;2023-02-28T07:43:29;0.70;99.90
24664;DHT22;12791;50.992;13.788;2023-02-28T07:46:01;0.90;99.90
24664;DHT22;12791;50.992;13.788;2023-02-28T07:48:27;1.10;99.90
24664;DHT22;12791;50.992;13.788;2023-02-28T07:50:56;1.00;99.90
24664;DHT22;12791;50.992;13.788;2023-02-28T07:53:23;1.20;99.90
24664;DHT22;12791;50.992;13.788;2023-02-28T07:55:49;1.40;99.90
24664;DHT22;12791;50.992;13.788;2023-02-28T07:58:16;1.30;99.90
24664;DHT22;12791;50.992;13.788;2023-02-28T08:00:42;1.40;99.90
24664;DHT22;12791;50.992;13.788;2023-02-28T08:03:11;1.50;99.90
24664;DHT22;12791;50.992;13.788;2023-02-28T08:05:38;1.40;99.90
24664;DHT22;12791;50.992;13.788;2023-02-28T08:08:06;1.20;99.90
24664;DHT22;12791;50.992;13.788;2023-02-28T08:10:33;1.60;99.90
24664;DHT22;12791;50.992;13.788;2023-02-28T08:13:00;1.40;99.90
24664;DHT22;12791;50.992;13.788;2023-02-28T08:15:27;1.40;99.90
24664;DHT22;12791;50.992;13.788;2023-02-28T08:17:53;1.40;99.90
24664;DHT22;12791;50.992;13.788;2023-02-28T08:20:21;1.60;99.90
24664;DHT22;12791;50.992;13.788;2023-02-28T08:22:48;1.60;99.90
24664;DHT22;12791;50.992;13.788;2023-02-28T08:25:17;1.50;99.90
24664;DHT22;12791;50.992;13.788;2023-02-28T08:27:44;1.50;99.90
24664;DHT22;12791;50.992;13.788;2023-02-28T08:30:11;1.70;99.90
24664;DHT22;12791;50.992;13.788;2023-02-28T08:32:38;1.70;99.90
24664;DHT22;12791;50.992;13.788;2023-02-28T08:35:05;1.70;99.90
24664;DHT22;12791;50.992;13.788;2023-02-28T08:37:32;1.80;99.90
24664;DHT22;12791;50.992;13.788;2023-02-28T08:39:58;1.80;99.90
24664;DHT22;12791;50.992;13.788;2023-02-28T08:42:26;1.70;99.90
24664;DHT22;12791;50.992;13.788;2023-02-28T08:44:53;1.60;99.90
24664;DHT22;12791;50.992;13.788;2023-02-28T08:47:20;1.80;99.90
24664;DHT22;12791;50.992;13.788;2023-02-28T08:49:46;1.80;99.90
24664;DHT22;12791;50.992;13.788;2023-02-28T08:52:13;1.80;99.90
24664;DHT22;12791;50.992;13.788;2023-02-28T08:54:40;1.90;99.90
24664;DHT22;12791;50.992;13.788;2023-02-28T08:57:06;1.90;99.90
24664;DHT22;12791;50.992;13.788;2023-02-28T08:59:34;2.20;99.90
24664;DHT22;12791;50.992;13.788;2023-02-28T09:02:01;2.10;99.90
24664;DHT22;12791;50.992;13.788;2023-02-28T09:04:28;2.30;99.90
24664;DHT22;12791;50.992;13.788;2023-02-28T09:06:56;2.20;99.90
24664;DHT22;12791;50.992;13.788;2023-02-28T09:09:22;2.30;99.90
24664;DHT22;12791;50.992;13.788;2023-02-28T09:11:49;2.20;99.90
24664;DHT22;12791;50.992;13.788;2023-02-28T09:14:15;2.10;99.90
24664;DHT22;12791;50.992;13.788;2023-02-28T09:16:44;2.00;97.60
24664;DHT22;12791;50.992;13.788;2023-02-28T09:19:11;2.00;95.90
24664;DHT22;12791;50.992;13.788;2023-02-28T09:21:37;2.10;96.90
24664;DHT22;12791;50.992;13.788;2023-02-28T09:24:04;2.00;96.40
24664;DHT22;12791;50.992;13.788;2023-02-28T09:26:31;2.30;95.10
24664;DHT22;12791;50.992;13.788;2023-02-28T09:28:57;2.40;94.80
24664;DHT22;12791;50.992;13.788;2023-02-28T09:31:26;2.10;94.50
24664;DHT22;12791;50.992;13.788;2023-02-28T09:33:56;2.20;94.70
24664;DHT22;12791;50.992;13.788;2023-02-28T09:36:24;2.20;93.40
24664;DHT22;12791;50.992;13.788;2023-02-28T09:38:51;2.50;94.00
24664;DHT22;12791;50.992;13.788;2023-02-28T09:41:20;2.50;92.50
24664;DHT22;12791;50.992;13.788;2023-02-28T09:43:49;2.40;91.00
24664;DHT22;12791;50.992;13.788;2023-02-28T09:46:29;2.70;90.50
24664;DHT22;12791;50.992;13.788;2023-02-28T09:49:00;2.40;85.90
24664;DHT22;12791;50.992;13.788;2023-02-28T09:51:34;2.50;84.80
24664;DHT22;12791;50.992;13.788;2023-02-28T09:54:02;2.70;86.10
24664;DHT22;12791;50.992;13.788;2023-02-28T09:56:33;2.50;84.80
24664;DHT22;12791;50.992;13.788;2023-02-28T09:59:02;2.70;85.50
24664;DHT22;12791;50.992;13.788;2023-02-28T10:01:36;2.70;81.90
24664;DHT22;12791;50.992;13.788;2023-02-28T10:04:13;2.80;83.90
24664;DHT22;12791;50.992;13.788;2023-02-28T10:06:48;2.90;83.40
24664;DHT22;12791;50.992;13.788;2023-02-28T10:09:21;2.90;81.50
24664;DHT22;12791;50.992;13.788;2023-02-28T10:11:51;3.10;80.30
24664;DHT22;12791;50.992;13.788;2023-02-28T10:14:22;3.00;78.30
24664;DHT22;12791;50.992;13.788;2023-02-28T10:16:53;3.10;77.30
24664;DHT22;12791;50.992;13.788;2023-02-28T10:19:27;3.30;77.10
24664;DHT22;12791;50.992;13.788;2023-02-28T10:21:59;3.20;74.00
24664;DHT22;12791;50.992;13.788;2023-02-28T10:24:29;3.00;75.30
24664;DHT22;12791;50.992;13.788;2023-02-28T10:27:00;3.50;72.90
24664;DHT22;12791;50.992;13.788;2023-02-28T10:29:27;3.60;69.30
24664;DHT22;12791;50.992;13.788;2023-02-28T10:31:58;3.30;65.50
24664;DHT22;12791;50.992;13.788;2023-02-28T10:34:28;3.30;65.70
24664;DHT22;12791;50.992;13.788;2023-02-28T10:36:56;3.20;65.00
24664;DHT22;12791;50.992;13.788;2023-02-28T10:39:38;3.20;64.70
24664;DHT22;12791;50.992;13.788;2023-02-28T10:42:19;3.50;63.40
24664;DHT22;12791;50.992;13.788;2023-02-28T10:44:46;3.30;62.70
24664;DHT22;12791;50.992;13.788;2023-02-28T10:47:15;3.10;64.40
24664;DHT22;12791;50.992;13.788;2023-02-28T10:49:49;3.20;66.50
24664;DHT22;12791;50.992;13.788;2023-02-28T10:52:33;3.10;63.60
24664;DHT22;12791;50.992;13.788;2023-02-28T10:55:18;3.20;64.70
24664;DHT22;12791;50.992;13.788;2023-02-28T10:57:46;3.20;65.20
24664;DHT22;12791;50.992;13.788;2023-02-28T11:00:16;3.30;65.60
24664;DHT22;12791;50.992;13.788;2023-02-28T11:02:44;3.40;65.20
24664;DHT22;12791;50.992;13.788;2023-02-28T11:05:25;3.50;66.00
24664;DHT22;12791;50.992;13.788;2023-02-28T11:07:53;3.30;66.10
24664;DHT22;12791;50.992;13.788;2023-02-28T11:10:21;3.20;65.00
24664;DHT22;12791;50.992;13.788;2023-02-28T11:12:54;3.10;64.70
24664;DHT22;12791;50.992;13.788;2023-02-28T11:15:23;2.80;66.10
24664;DHT22;12791;50.992;13.788;2023-02-28T11:17:54;3.00;65.50
24664;DHT22;12791;50.992;13.788;2023-02-28T11:20:24;3.20;65.90
24664;DHT22;12791;50.992;13.788;2023-02-28T11:22:52;3.20;65.30
24664;DHT22;12791;50.992;13.788;2023-02-28T11:25:23;3.30;65.90
24664;DHT22;12791;50.992;13.788;2023-02-28T11:27:51;3.20;65.20
24664;DHT22;12791;50.992;13.788;2023-02-28T11:30:30;3.00;64.90
24664;DHT22;12791;50.992;13.788;2023-02-28T11:32:57;3.10;64.90
24664;DHT22;12791;50.992;13.788;2023-02-28T11:35:28;3.20;65.70
24664;DHT22;12791;50.992;13.788;2023-02-28T11:37:57;3.30;63.00
24664;DHT22;12791;50.992;13.788;2023-02-28T11:40:30;3.30;61.30
24664;DHT22;12791;50.992;13.788;2023-02-28T11:43:06;3.20;61.20
24664;DHT22;12791;50.992;13.788;2023-02-28T11:45:44;3.20;61.90
24664;DHT22;12791;50.992;13.788;2023-02-28T11:48:17;3.20;62.20
24664;DHT22;12791;50.992;13.788;2023-02-28T11:50:54;3.20;60.50
24664;DHT22;12791;50.992;13.788;2023-02-28T11:53:44;3.40;61.10
24664;DHT22;12791;50.992;13.788;2023-02-28T11:56:17;3.30;62.20
24664;DHT22;12791;50.992;13.788;2023-02-28T11:58:52;3.40;60.90
24664;DHT22;12791;50.992;13.788;2023-02-28T12:01:38;3.50;60.50
24664;DHT22;12791;50.992;13.788;2023-02-28T12:04:21;3.40;59.80
24664;DHT22;12791;50.992;13.788;2023-02-28T12:06:57;3.30;61.00
24664;DHT22;12791;50.992;13.788;2023-02-28T12:09:43;3.40;62.60
24664;DHT22;12791;50.992;13.788;2023-02-28T12:12:21;3.50;60.00
24664;DHT22;12791;50.992;13.788;2023-02-28T12:15:16;3.40;61.00
24664;DHT22;12791;50.992;13.788;2023-02-28T12:17:55;3.40;59.50
24664;DHT22;12791;50.992;13.788;2023-02-28T12:20:30;3.60;60.10
24664;DHT22;12791;50.992;13.788;2023-02-28T12:23:10;3.50;60.40
24664;DHT22;12791;50.992;13.788;2023-02-28T12:25:50;3.60;60.30
24664;DHT22;12791;50.992;13.788;2023-02-28T12:28:23;3.40;60.90
24664;DHT22;12791;50.992;13.788;2023-02-28T12:30:54;3.70;60.80
24664;DHT22;12791;50.992;13.788;2023-02-28T12:33:26;3.60;60.50
24664;DHT22;12791;50.992;13.788;2023-02-28T12:35:56;3.60;60.00
24664;DHT22;12791;50.992;13.788;2023-02-28T12:38:27;3.30;58.70
24664;DHT22;12791;50.992;13.788;2023-02-28T12:40:59;3.70;59.20
24664;DHT22;12791;50.992;13.788;2023-02-28T12:43:31;3.90;60.60
24664;DHT22;12791;50.992;13.788;2023-02-28T12:46:00;3.30;60.70
24664;DHT22;12791;50.992;13.788;2023-02-28T12:48:33;3.50;60.60
24664;DHT22;12791;50.992;13.788;2023-02-28T12:51:04;3.40;61.40
24664;DHT22;12791;50.992;13.788;2023-02-28T12:53:39;3.60;62.40
24664;DHT22;12791;50.992;13.788;2023-02-28T12:56:16;3.70;62.60
24664;DHT22;12791;50.992;13.788;2023-02-28T12:58:49;3.30;59.80
24664;DHT22;12791;50.992;13.788;2023-02-28T13:01:36;3.60;60.40
24664;DHT22;12791;50.992;13.788;2023-02-28T13:04:36;3.40;59.50
24664;DHT22;12791;50.992;13.788;2023-02-28T13:07:29;3.30;59.60
24664;DHT22;12791;50.992;13.788;2023-02-28T13:10:03;3.30;60.50
24664;DHT22;12791;50.992;13.788;2023-02-28T13:12:31;3.50;61.90
24664;DHT22;12791;50.992;13.788;2023-02-28T13:15:07;3.50;61.40
24664;DHT22;12791;50.992;13.788;2023-02-28T13:17:38;3.50;61.30
24664;DHT22;12791;50.992;13.788;2023-02-28T13:20:15;3.80;61.70
24664;DHT22;12791;50.992;13.788;2023-02-28T13:22:46;3.50;59.70
24664;DHT22;12791;50.992;13.788;2023-02-28T13:25:53;3.80;59.90
24664;DHT22;12791;50.992;13.788;2023-02-28T13:31:32;3.80;61.00
24664;DHT22;12791;50.992;13.788;2023-02-28T13:34:15;3.50;62.20
24664;DHT22;12791;50.992;13.788;2023-02-28T13:36:42;3.50;63.40
24664;DHT22;12791;50.992;13.788;2023-02-28T13:39:46;3.00;61.90
24664;DHT22;12791;50.992;13.788;2023-02-28T13:42:32;3.50;64.10
24664;DHT22;12791;50.992;13.788;2023-02-28T13:45:20;3.40;61.30
24664;DHT22;12791;50.992;13.788;2023-02-28T13:47:52;3.30;62.10
24664;DHT22;12791;50.992;13.788;2023-02-28T13:50:24;3.50;63.80
24664;DHT22;12791;50.992;13.788;2023-02-28T13:53:02;3.40;63.20
24664;DHT22;12791;50.992;13.788;2023-02-28T13:55:36;3.70;62.70
24664;DHT22;12791;50.992;13.788;2023-02-28T13:58:25;3.50;62.80
24664;DHT22;12791;50.992;13.788;2023-02-28T14:01:08;3.60;63.10
24664;DHT22;12791;50.992;13.788;2023-02-28T14:03:49;3.30;62.60
24664;DHT22;12791;50.992;13.788;2023-02-28T14:06:25;3.30;62.50
24664;DHT22;12791;50.992;13.788;2023-02-28T14:08:57;3.10;63.70
24664;DHT22;12791;50.992;13.788;2023-02-28T14:11:28;3.20;62.70
24664;DHT22;12791;50.992;13.788;2023-02-28T14:13:56;3.20;61.90
24664;DHT22;12791;50.992;13.788;2023-02-28T14:16:24;3.20;62.60
24664;DHT22;12791;50.992;13.788;2023-02-28T14:18:56;3.20;62.30
24664;DHT22;12791;50.992;13.788;2023-02-28T14:21:26;3.50;63.00
24664;DHT22;12791;50.992;13.788;2023-02-28T14:24:32;3.30;63.80
24664;DHT22;12791;50.992;13.788;2023-02-28T14:27:13;3.30;63.90
24664;DHT22;12791;50.992;13.788;2023-02-28T14:33:05;3.40;64.30
24664;DHT22;12791;50.992;13.788;2023-02-28T14:35:50;3.50;64.10
24664;DHT22;12791;50.992;13.788;2023-02-28T14:38:20;3.30;61.60
24664;DHT22;12791;50.992;13.788;2023-02-28T14:40:49;3.50;62.40
24664;DHT22;12791;50.992;13.788;2023-02-28T14:43:21;3.40;61.90
24664;DHT22;12791;50.992;13.788;2023-02-28T14:45:52;3.20;61.50
24664;DHT22;12791;50.992;13.788;2023-02-28T14:48:20;3.40;61.70
24664;DHT22;12791;50.992;13.788;2023-02-28T14:50:49;3.30;61.80
24664;DHT22;12791;50.992;13.788;2023-02-28T14:53:19;3.30;62.60
24664;DHT22;12791;50.992;13.788;2023-02-28T14:55:48;3.30;61.60
24664;DHT22;12791;50.992;13.788;2023-02-28T14:58:22;3.40;63.00
24664;DHT22;12791;50.992;13.788;2023-02-28T15:00:52;3.20;61.80
24664;DHT22;12791;50.992;13.788;2023-02-28T15:03:22;3.30;61.20
24664;DHT22;12791;50.992;13.788;2023-02-28T15:05:53;3.50;61.50
24664;DHT22;12791;50.992;13.788;2023-02-28T15:08:20;3.40;60.30
24664;DHT22;12791;50.992;13.788;2023-02-28T15:10:52;3.30;61.40
24664;DHT22;12791;50.992;13.788;2023-02-28T15:13:20;3.30;61.70
24664;DHT22;12791;50.992;13.788;2023-02-28T15:15:53;3.70;61.70
24664;DHT22;12791;50.992;13.788;2023-02-28T15:18:27;3.40;61.40
24664;DHT22;12791;50.992;13.788;2023-02-28T15:20:55;3.60;61.80
24664;DHT22;12791;50.992;13.788;2023-02-28T15:23:23;3.30;62.00
24664;DHT22;12791;50.992;13.788;2023-02-28T15:25:51;3.50;62.20
24664;DHT22;12791;50.992;13.788;2023-02-28T15:28:20;3.50;62.30
24664;DHT22;12791;50.992;13.788;2023-02-28T15:30:59;3.50;61.50
24664;DHT22;12791;50.992;13.788;2023-02-28T15:33:27;3.50;61.10
24664;DHT22;12791;50.992;13.788;2023-02-28T15:36:13;3.60;61.10
24664;DHT22;12791;50.992;13.788;2023-02-28T15:38:40;3.50;61.30
24664;DHT22;12791;50.992;13.788;2023-02-28T15:41:22;3.50;62.40
24664;DHT22;12791;50.992;13.788;2023-02-28T15:44:27;3.60;63.10
24664;DHT22;12791;50.992;13.788;2023-02-28T15:47:00;3.60;63.40
24664;DHT22;12791;50.992;13.788;2023-02-28T15:49:28;3.50;64.00
24664;DHT22;12791;50.992;13.788;2023-02-28T15:51:58;3.60;63.50
24664;DHT22;12791;50.992;13.788;2023-02-28T15:54:29;3.50;63.10
24664;DHT22;12791;50.992;13.788;2023-02-28T15:56:58;3.60;63.20
24664;DHT22;12791;50.992;13.788;2023-02-28T15:59:29;3.40;62.60
24664;DHT22;12791;50.992;13.788;2023-02-28T16:02:13;3.40;62.10